ADDS METAR Data INFO
IDs: Format: Raw Decoded Include TAF

Data at: 0351 UTC 20 Feb 2018

KANB 200253Z AUTO 13006KT 10SM SCT050 BKN070 22/15 A3025 RMK AO2 SLP239 T02170150 53010
KANB 200153Z AUTO 14003KT 10SM BKN070 22/15 A3024 RMK AO2 SLP236 T02170150
KANB 200053Z AUTO 12007KT 10SM OVC070 22/15 A3023 RMK AO2 SLP233 T02220150
KANB 192353Z AUTO 13004KT 10SM OVC070 22/14 A3022 RMK AO2 SLP230 T02220139 10256 20222 52008
KANB 192253Z AUTO 18005KT 10SM OVC070 23/13 A3022 RMK AO2 SLP228 T02330133
KANB 192153Z AUTO 17009G15KT 10SM OVC070 24/13 A3020 RMK AO2 SLP222 T02440128
KANB 192053Z AUTO 17011KT 10SM FEW049 25/12 A3020 RMK AO2 SLP221 T02500122 56020
KANB 191953Z AUTO 21011G19KT 10SM FEW042 FEW065 25/15 A3020 RMK AO2 SLP223 T02500150
KANB 191853Z AUTO 18013G21KT 10SM FEW040 SCT050 BKN060 24/16 A3022 RMK AO2 SLP228 T02390156
KANB 191753Z AUTO 15009KT 10SM FEW031 BKN049 OVC065 23/17 A3026 RMK AO2 SLP242 T02330167 10233 20161 58014
KANB 191653Z AUTO 16006KT 10SM SCT024 SCT028 22/17 A3029 RMK AO2 SLP253 T02220167
KANB 191553Z AUTO 14007KT 10SM BKN016 BKN022 20/17 A3031 RMK AO2 SLP260 T02000167
KANB 191540Z AUTO VRB06KT 10SM BKN015 BKN020 21/17 A3031 RMK AO2 T02060172
KANB 191521Z AUTO 17007KT 10SM BKN011 BKN065 20/17 A3031 RMK AO2 T02000172
KANB 191453Z AUTO 12007KT 10SM SCT010 19/17 A3030 RMK AO2 SLP258 T01890167 51011
KANB 191414Z AUTO 12005KT 10SM BKN012 BKN019 18/16 A3030 RMK AO2 T01830161
KANB 191353Z AUTO 12005KT 10SM FEW012 FEW020 18/16 A3030 RMK AO2 SLP258 T01780156
KANB 191253Z AUTO 07003KT 8SM CLR 17/15 A3028 RMK AO2 SLP253 T01670150
KANB 191153Z AUTO 08004KT 10SM CLR 16/15 A3026 RMK AO2 SLP248 70007 T01610150 10167 20144 51014
KANB 191117Z AUTO 07005KT 9SM SCT009 16/15 A3026 RMK AO2 T01610150
KANB 191053Z AUTO 08005KT 10SM OVC008 17/15 A3025 RMK AO2 SLP243 T01670150
KANB 190953Z AUTO 05004KT 10SM OVC009 16/14 A3024 RMK AO2 SLP238 T01610144
KANB 190918Z AUTO 04006KT 10SM OVC009 16/14 A3023 RMK AO2 T01560139
KANB 190853Z AUTO 04007KT 10SM OVC012 16/14 A3022 RMK AO2 SLP233 T01560139 53001
KANB 190831Z AUTO 05008KT 10SM BKN013 BKN060 16/14 A3022 RMK AO2 T01560139
KANB 190753Z AUTO 04007KT 10SM BKN045 BKN055 15/13 A3021 RMK AO2 SLP228 T01500133
KANB 190653Z AUTO 04008KT 10SM OVC070 14/13 A3021 RMK AO2 SLP227 T01440128
KANB 190553Z AUTO 05008KT 10SM OVC070 14/13 A3022 RMK AO2 SLP231 T01440128 10144 20139 401830100 58007
KANB 190453Z AUTO 04008KT 10SM FEW075 14/12 A3023 RMK AO2 SLP237 T01440122
KANB 190353Z AUTO 04007KT 10SM OVC100 14/12 A3023 RMK AO2 SLP238 T01440122
KANB 190253Z AUTO 05008KT 10SM BKN037 OVC090 14/13 A3024 RMK AO2 SLP242 T01440128 51006
KANB 190153Z AUTO 05007KT 10SM SCT038 OVC055 14/12 A3024 RMK AO2 SLP240 T01440122
KANB 190142Z AUTO 05005KT 10SM FEW026 BKN039 OVC055 14/12 A3024 RMK AO2 T01440122
KANB 190053Z AUTO 06004KT 10SM OVC026 14/12 A3023 RMK AO2 SLP238 T01440122
KANB 182353Z AUTO 06006KT 10SM OVC021 14/13 A3022 RMK AO2 RAB2256E18 SLP236 P0001 60007 T01390128 10183 20139 53002
KANB 182253Z AUTO 08005KT 10SM OVC018 14/13 A3022 RMK AO2 RAB19E52 SLP234 P0006 T01440128
KANB 182242Z AUTO 07005KT 4SM -RA BR OVC018 14/13 A3022 RMK AO2 RAB19 P0006 T01440128
KANB 182232Z AUTO 06004KT 2 1/2SM -RA BR OVC018 14/13 A3022 RMK AO2 RAB19 P0005 T01440128
KANB 182153Z AUTO 07004KT 10SM OVC018 14/12 A3021 RMK AO2 RAE06 SLP231 P0000 T01440122
KANB 182053Z AUTO 13005KT 5SM -RA BR OVC020 14/12 A3022 RMK AO2 RAE02B46 SLP233 P0000 60000 T01440122 55013
KANB 181953Z AUTO 23003KT 9SM -RA OVC025 17/09 A3021 RMK AO2 RAB48 SLP230 P0000 T01670089
KANB 181853Z AUTO 04005KT 10SM BKN027 BKN042 OVC095 18/07 A3022 RMK AO2 SLP235 T01780072
KANB 181753Z AUTO VRB03KT 10SM FEW070 BKN110 17/07 A3025 RMK AO2 SLP244 T01720072 10172 20100 58009
KANB 181653Z AUTO VRB03KT 10SM OVC110 14/06 A3028 RMK AO2 SLP253 T01440056
KANB 181553Z AUTO 09005KT 10SM CLR 13/06 A3028 RMK AO2 SLP255 T01330061